Pointe Aux Pins, Michigan
Current Conditions -  °F | °C
As of 1:17 PM on Friday 31 Oct 2014 (Local Time) from KSLH Reporting Station
Overcast Overcast  
Wind Chill: 22°   Ceiling: 3700
Heat Index: 34°   Visibility: 10mi
Dew Point: 26°   Wind: 21mph
Humidity: 72%   Direction: 30°NNE
Pressure: 30.21"   Gusts: 30mph
Location:  45.73°N, 84.48°W
Report Text: KSLH 311717Z AUTO 03018G26KT 10SM OVC037 01/M03 A3021 RMK AO2 T00101035
Loading
Personal Weather Stations






























Interactive Weather Map
Tropical Storm Tracking
New forecast layout! Learn more

10-Day Weather Forecast

Advertisements
Track Severe Weather on mobile